sensor_id;sensor_type;location;lat;lon;timestamp;temperature;humidity
13198;DHT22;6664;52.514;13.440;2023-08-20T00:01:05;24.00;48.40
13198;DHT22;6664;52.514;13.440;2023-08-20T00:03:51;24.10;46.50
13198;DHT22;6664;52.514;13.440;2023-08-20T00:06:38;24.00;47.50
13198;DHT22;6664;52.514;13.440;2023-08-20T00:09:23;24.00;48.10
13198;DHT22;6664;52.514;13.440;2023-08-20T00:12:12;24.00;48.40
13198;DHT22;6664;52.514;13.440;2023-08-20T00:15:02;24.00;46.10
13198;DHT22;6664;52.514;13.440;2023-08-20T00:17:51;24.00;45.40
13198;DHT22;6664;52.514;13.440;2023-08-20T00:20:39;24.00;45.40
13198;DHT22;6664;52.514;13.440;2023-08-20T00:23:26;24.00;45.40
13198;DHT22;6664;52.514;13.440;2023-08-20T00:26:12;24.20;44.20
13198;DHT22;6664;52.514;13.440;2023-08-20T00:28:58;24.20;43.70
13198;DHT22;6664;52.514;13.440;2023-08-20T00:31:43;24.30;43.20
13198;DHT22;6664;52.514;13.440;2023-08-20T00:34:31;24.20;42.90
13198;DHT22;6664;52.514;13.440;2023-08-20T00:37:20;24.30;42.60
13198;DHT22;6664;52.514;13.440;2023-08-20T00:40:08;24.30;42.50
13198;DHT22;6664;52.514;13.440;2023-08-20T00:42:55;24.30;42.00
13198;DHT22;6664;52.514;13.440;2023-08-20T00:45:42;24.40;41.90
13198;DHT22;6664;52.514;13.440;2023-08-20T00:48:28;24.40;40.40
13198;DHT22;6664;52.514;13.440;2023-08-20T00:51:16;24.50;39.80
13198;DHT22;6664;52.514;13.440;2023-08-20T00:54:04;24.50;39.10
13198;DHT22;6664;52.514;13.440;2023-08-20T00:56:50;24.50;38.60
13198;DHT22;6664;52.514;13.440;2023-08-20T00:59:37;24.60;38.00
13198;DHT22;6664;52.514;13.440;2023-08-20T01:02:22;24.70;38.00
13198;DHT22;6664;52.514;13.440;2023-08-20T01:05:10;24.80;37.60
13198;DHT22;6664;52.514;13.440;2023-08-20T01:11:32;24.90;36.90
13198;DHT22;6664;52.514;13.440;2023-08-20T01:14:19;24.90;38.30
13198;DHT22;6664;52.514;13.440;2023-08-20T01:17:05;24.90;39.50
13198;DHT22;6664;52.514;13.440;2023-08-20T01:19:51;24.70;40.00
13198;DHT22;6664;52.514;13.440;2023-08-20T01:28:57;24.40;45.00
13198;DHT22;6664;52.514;13.440;2023-08-20T01:31:45;24.30;46.20
13198;DHT22;6664;52.514;13.440;2023-08-20T01:34:31;24.30;47.60
13198;DHT22;6664;52.514;13.440;2023-08-20T01:37:16;24.20;48.60
13198;DHT22;6664;52.514;13.440;2023-08-20T01:40:03;24.10;49.70
13198;DHT22;6664;52.514;13.440;2023-08-20T01:42:49;24.10;50.70
13198;DHT22;6664;52.514;13.440;2023-08-20T01:45:35;24.00;51.50
13198;DHT22;6664;52.514;13.440;2023-08-20T01:48:21;23.90;53.20
13198;DHT22;6664;52.514;13.440;2023-08-20T01:51:06;24.00;54.50
13198;DHT22;6664;52.514;13.440;2023-08-20T01:53:54;24.00;54.30
13198;DHT22;6664;52.514;13.440;2023-08-20T01:56:40;23.80;55.10
13198;DHT22;6664;52.514;13.440;2023-08-20T01:59:25;23.80;56.00
13198;DHT22;6664;52.514;13.440;2023-08-20T02:02:14;23.70;56.70
13198;DHT22;6664;52.514;13.440;2023-08-20T02:05:01;23.70;57.50
13198;DHT22;6664;52.514;13.440;2023-08-20T02:07:48;23.70;58.60
13198;DHT22;6664;52.514;13.440;2023-08-20T02:10:33;23.60;58.60
13198;DHT22;6664;52.514;13.440;2023-08-20T02:13:18;23.60;59.50
13198;DHT22;6664;52.514;13.440;2023-08-20T02:16:07;23.60;60.60
13198;DHT22;6664;52.514;13.440;2023-08-20T02:18:53;23.50;60.40
13198;DHT22;6664;52.514;13.440;2023-08-20T02:21:40;23.50;61.70
13198;DHT22;6664;52.514;13.440;2023-08-20T02:24:28;23.40;62.00
13198;DHT22;6664;52.514;13.440;2023-08-20T02:27:18;23.40;63.20
13198;DHT22;6664;52.514;13.440;2023-08-20T02:30:06;23.40;63.90
13198;DHT22;6664;52.514;13.440;2023-08-20T02:32:52;23.30;64.90
13198;DHT22;6664;52.514;13.440;2023-08-20T02:35:38;23.30;65.30
13198;DHT22;6664;52.514;13.440;2023-08-20T02:38:24;23.30;66.30
13198;DHT22;6664;52.514;13.440;2023-08-20T02:41:09;23.30;66.10
13198;DHT22;6664;52.514;13.440;2023-08-20T02:43:55;23.10;68.20
13198;DHT22;6664;52.514;13.440;2023-08-20T02:46:44;23.10;68.20
13198;DHT22;6664;52.514;13.440;2023-08-20T02:49:30;23.10;69.10
13198;DHT22;6664;52.514;13.440;2023-08-20T02:52:20;23.10;70.00
13198;DHT22;6664;52.514;13.440;2023-08-20T02:55:06;23.00;70.60
13198;DHT22;6664;52.514;13.440;2023-08-20T02:57:51;23.00;72.40
13198;DHT22;6664;52.514;13.440;2023-08-20T03:00:39;22.90;74.00
13198;DHT22;6664;52.514;13.440;2023-08-20T03:03:25;22.90;73.70
13198;DHT22;6664;52.514;13.440;2023-08-20T03:06:10;22.80;75.30
13198;DHT22;6664;52.514;13.440;2023-08-20T03:08:57;22.80;76.60
13198;DHT22;6664;52.514;13.440;2023-08-20T03:11:42;22.80;76.80
13198;DHT22;6664;52.514;13.440;2023-08-20T03:14:28;22.80;77.70
13198;DHT22;6664;52.514;13.440;2023-08-20T03:17:15;22.70;79.20
13198;DHT22;6664;52.514;13.440;2023-08-20T03:20:04;22.70;79.50
13198;DHT22;6664;52.514;13.440;2023-08-20T03:22:52;22.60;80.60
13198;DHT22;6664;52.514;13.440;2023-08-20T03:25:38;22.60;81.60
13198;DHT22;6664;52.514;13.440;2023-08-20T03:28:24;22.60;81.90
13198;DHT22;6664;52.514;13.440;2023-08-20T03:31:09;22.50;82.70
13198;DHT22;6664;52.514;13.440;2023-08-20T03:33:57;22.50;82.90
13198;DHT22;6664;52.514;13.440;2023-08-20T03:36:45;22.50;83.40
13198;DHT22;6664;52.514;13.440;2023-08-20T03:39:31;22.40;84.30
13198;DHT22;6664;52.514;13.440;2023-08-20T03:42:17;22.40;84.80
13198;DHT22;6664;52.514;13.440;2023-08-20T03:45:03;22.30;86.60
13198;DHT22;6664;52.514;13.440;2023-08-20T03:47:49;22.30;87.80
13198;DHT22;6664;52.514;13.440;2023-08-20T03:50:34;22.30;89.30
13198;DHT22;6664;52.514;13.440;2023-08-20T03:53:22;22.30;89.30
13198;DHT22;6664;52.514;13.440;2023-08-20T03:56:07;22.20;90.20
13198;DHT22;6664;52.514;13.440;2023-08-20T03:58:55;22.10;90.20
13198;DHT22;6664;52.514;13.440;2023-08-20T04:01:41;22.10;90.40
13198;DHT22;6664;52.514;13.440;2023-08-20T04:04:29;22.00;91.30
13198;DHT22;6664;52.514;13.440;2023-08-20T04:07:15;22.00;91.90
13198;DHT22;6664;52.514;13.440;2023-08-20T04:10:00;22.00;92.00
13198;DHT22;6664;52.514;13.440;2023-08-20T04:12:46;22.10;92.00
13198;DHT22;6664;52.514;13.440;2023-08-20T04:15:32;22.00;92.50
13198;DHT22;6664;52.514;13.440;2023-08-20T04:18:18;22.00;92.40
13198;DHT22;6664;52.514;13.440;2023-08-20T04:21:04;22.00;92.50
13198;DHT22;6664;52.514;13.440;2023-08-20T04:23:52;22.00;92.60
13198;DHT22;6664;52.514;13.440;2023-08-20T04:26:38;22.00;92.50
13198;DHT22;6664;52.514;13.440;2023-08-20T04:29:24;22.00;92.40
13198;DHT22;6664;52.514;13.440;2023-08-20T04:32:09;22.10;92.30
13198;DHT22;6664;52.514;13.440;2023-08-20T04:34:58;22.10;92.10
13198;DHT22;6664;52.514;13.440;2023-08-20T04:37:47;22.10;91.90
13198;DHT22;6664;52.514;13.440;2023-08-20T04:40:32;22.20;92.00
13198;DHT22;6664;52.514;13.440;2023-08-20T04:43:18;22.10;92.10
13198;DHT22;6664;52.514;13.440;2023-08-20T04:46:03;22.10;92.50
13198;DHT22;6664;52.514;13.440;2023-08-20T04:48:49;22.10;92.60
13198;DHT22;6664;52.514;13.440;2023-08-20T04:51:35;22.10;92.90
13198;DHT22;6664;52.514;13.440;2023-08-20T04:54:23;22.10;92.80
13198;DHT22;6664;52.514;13.440;2023-08-20T04:57:09;22.10;92.50
13198;DHT22;6664;52.514;13.440;2023-08-20T04:59:55;22.10;92.80
13198;DHT22;6664;52.514;13.440;2023-08-20T05:02:40;22.10;93.10
13198;DHT22;6664;52.514;13.440;2023-08-20T05:05:28;22.10;92.80
13198;DHT22;6664;52.514;13.440;2023-08-20T05:08:14;22.10;93.10
13198;DHT22;6664;52.514;13.440;2023-08-20T05:10:59;22.10;93.10
13198;DHT22;6664;52.514;13.440;2023-08-20T05:13:49;22.10;93.10
13198;DHT22;6664;52.514;13.440;2023-08-20T05:16:35;22.20;93.30
13198;DHT22;6664;52.514;13.440;2023-08-20T05:19:20;22.20;92.90
13198;DHT22;6664;52.514;13.440;2023-08-20T05:22:07;22.30;92.60
13198;DHT22;6664;52.514;13.440;2023-08-20T05:24:55;22.30;92.00
13198;DHT22;6664;52.514;13.440;2023-08-20T05:27:43;22.30;92.00
13198;DHT22;6664;52.514;13.440;2023-08-20T05:33:48;22.40;91.20
13198;DHT22;6664;52.514;13.440;2023-08-20T05:36:35;22.40;91.30
13198;DHT22;6664;52.514;13.440;2023-08-20T05:39:22;22.40;91.20
13198;DHT22;6664;52.514;13.440;2023-08-20T05:42:08;22.40;90.70
13198;DHT22;6664;52.514;13.440;2023-08-20T05:44:57;22.50;90.10
13198;DHT22;6664;52.514;13.440;2023-08-20T05:47:43;22.60;87.60
13198;DHT22;6664;52.514;13.440;2023-08-20T05:50:28;22.60;86.80
13198;DHT22;6664;52.514;13.440;2023-08-20T05:53:19;22.60;86.20
13198;DHT22;6664;52.514;13.440;2023-08-20T05:56:04;22.80;83.70
13198;DHT22;6664;52.514;13.440;2023-08-20T05:58:50;22.80;82.50
13198;DHT22;6664;52.514;13.440;2023-08-20T06:01:39;22.90;81.50
13198;DHT22;6664;52.514;13.440;2023-08-20T06:04:24;23.00;79.70
13198;DHT22;6664;52.514;13.440;2023-08-20T06:07:10;23.40;74.70
13198;DHT22;6664;52.514;13.440;2023-08-20T06:09:56;23.60;71.80
13198;DHT22;6664;52.514;13.440;2023-08-20T06:12:42;23.60;70.90
13198;DHT22;6664;52.514;13.440;2023-08-20T06:15:27;23.40;71.30
13198;DHT22;6664;52.514;13.440;2023-08-20T06:18:13;23.30;71.90
13198;DHT22;6664;52.514;13.440;2023-08-20T06:20:59;23.10;74.40
13198;DHT22;6664;52.514;13.440;2023-08-20T06:23:44;22.90;75.60
13198;DHT22;6664;52.514;13.440;2023-08-20T06:26:30;22.90;76.80
13198;DHT22;6664;52.514;13.440;2023-08-20T06:29:15;23.10;75.80
13198;DHT22;6664;52.514;13.440;2023-08-20T06:32:01;23.30;73.90
13198;DHT22;6664;52.514;13.440;2023-08-20T06:34:50;23.10;74.40
13198;DHT22;6664;52.514;13.440;2023-08-20T06:37:35;23.00;75.40
13198;DHT22;6664;52.514;13.440;2023-08-20T06:40:21;23.30;73.40
13198;DHT22;6664;52.514;13.440;2023-08-20T06:43:09;23.70;69.60
13198;DHT22;6664;52.514;13.440;2023-08-20T06:45:57;24.00;66.30
13198;DHT22;6664;52.514;13.440;2023-08-20T06:48:42;24.10;63.20
13198;DHT22;6664;52.514;13.440;2023-08-20T06:51:28;24.10;62.90
13198;DHT22;6664;52.514;13.440;2023-08-20T06:54:15;24.00;62.80
13198;DHT22;6664;52.514;13.440;2023-08-20T06:57:02;24.30;60.40
13198;DHT22;6664;52.514;13.440;2023-08-20T06:59:50;24.10;61.00
13198;DHT22;6664;52.514;13.440;2023-08-20T07:02:36;24.10;60.20
13198;DHT22;6664;52.514;13.440;2023-08-20T07:05:21;23.90;61.70
13198;DHT22;6664;52.514;13.440;2023-08-20T07:08:10;24.10;61.20
13198;DHT22;6664;52.514;13.440;2023-08-20T07:10:55;23.90;61.00
13198;DHT22;6664;52.514;13.440;2023-08-20T07:13:41;23.90;60.60
13198;DHT22;6664;52.514;13.440;2023-08-20T07:16:28;24.00;60.40
13198;DHT22;6664;52.514;13.440;2023-08-20T07:19:14;23.80;61.70
13198;DHT22;6664;52.514;13.440;2023-08-20T07:21:59;23.90;61.20
13198;DHT22;6664;52.514;13.440;2023-08-20T07:24:45;24.00;60.80
13198;DHT22;6664;52.514;13.440;2023-08-20T07:27:31;23.90;61.40
13198;DHT22;6664;52.514;13.440;2023-08-20T07:30:16;24.30;59.30
13198;DHT22;6664;52.514;13.440;2023-08-20T07:33:02;24.40;56.10
13198;DHT22;6664;52.514;13.440;2023-08-20T07:35:50;24.40;56.20
13198;DHT22;6664;52.514;13.440;2023-08-20T07:38:36;24.60;53.90
13198;DHT22;6664;52.514;13.440;2023-08-20T07:41:26;25.10;52.60
13198;DHT22;6664;52.514;13.440;2023-08-20T07:44:11;25.10;51.50
13198;DHT22;6664;52.514;13.440;2023-08-20T07:46:57;25.50;49.60
13198;DHT22;6664;52.514;13.440;2023-08-20T07:49:43;25.00;50.20
13198;DHT22;6664;52.514;13.440;2023-08-20T07:52:29;24.60;52.40
13198;DHT22;6664;52.514;13.440;2023-08-20T07:55:14;24.40;54.00
13198;DHT22;6664;52.514;13.440;2023-08-20T07:58:00;24.10;55.60
13198;DHT22;6664;52.514;13.440;2023-08-20T08:00:48;24.00;56.50
13198;DHT22;6664;52.514;13.440;2023-08-20T08:03:34;24.10;55.70
13198;DHT22;6664;52.514;13.440;2023-08-20T08:06:22;24.30;54.20
13198;DHT22;6664;52.514;13.440;2023-08-20T08:09:20;24.90;53.00
13198;DHT22;6664;52.514;13.440;2023-08-20T08:12:06;25.30;49.50
13198;DHT22;6664;52.514;13.440;2023-08-20T08:14:51;24.90;49.50
13198;DHT22;6664;52.514;13.440;2023-08-20T08:17:37;24.90;49.20
13198;DHT22;6664;52.514;13.440;2023-08-20T08:20:23;24.80;50.40
13198;DHT22;6664;52.514;13.440;2023-08-20T08:23:08;24.70;49.90
13198;DHT22;6664;52.514;13.440;2023-08-20T08:25:59;24.30;51.50
13198;DHT22;6664;52.514;13.440;2023-08-20T08:28:44;24.00;53.70
13198;DHT22;6664;52.514;13.440;2023-08-20T08:31:30;24.10;53.50
13198;DHT22;6664;52.514;13.440;2023-08-20T08:34:16;23.70;55.20
13198;DHT22;6664;52.514;13.440;2023-08-20T08:37:02;23.70;56.70
13198;DHT22;6664;52.514;13.440;2023-08-20T08:39:47;24.00;55.60
13198;DHT22;6664;52.514;13.440;2023-08-20T08:42:33;23.70;55.30
13198;DHT22;6664;52.514;13.440;2023-08-20T08:45:21;23.80;55.90
13198;DHT22;6664;52.514;13.440;2023-08-20T08:48:09;24.20;54.40
13198;DHT22;6664;52.514;13.440;2023-08-20T08:50:55;24.70;51.50
13198;DHT22;6664;52.514;13.440;2023-08-20T08:53:46;25.20;48.50
13198;DHT22;6664;52.514;13.440;2023-08-20T08:56:34;25.40;46.50
13198;DHT22;6664;52.514;13.440;2023-08-20T08:59:21;25.50;43.50
13198;DHT22;6664;52.514;13.440;2023-08-20T09:02:11;25.70;44.10
13198;DHT22;6664;52.514;13.440;2023-08-20T09:04:58;25.80;41.50
13198;DHT22;6664;52.514;13.440;2023-08-20T09:07:44;26.00;41.10
13198;DHT22;6664;52.514;13.440;2023-08-20T09:10:31;26.20;40.10
13198;DHT22;6664;52.514;13.440;2023-08-20T09:13:41;26.30;39.00
13198;DHT22;6664;52.514;13.440;2023-08-20T09:16:30;26.50;38.00
13198;DHT22;6664;52.514;13.440;2023-08-20T09:19:18;26.60;37.10
13198;DHT22;6664;52.514;13.440;2023-08-20T09:22:04;26.70;35.90
13198;DHT22;6664;52.514;13.440;2023-08-20T09:24:55;26.60;35.80
13198;DHT22;6664;52.514;13.440;2023-08-20T09:27:40;26.30;36.20
13198;DHT22;6664;52.514;13.440;2023-08-20T09:30:27;26.30;36.70
13198;DHT22;6664;52.514;13.440;2023-08-20T09:33:15;26.30;37.30
13198;DHT22;6664;52.514;13.440;2023-08-20T09:36:03;25.80;38.80
13198;DHT22;6664;52.514;13.440;2023-08-20T09:38:51;25.50;39.50
13198;DHT22;6664;52.514;13.440;2023-08-20T09:41:37;25.40;40.20
13198;DHT22;6664;52.514;13.440;2023-08-20T09:44:32;25.30;41.30
13198;DHT22;6664;52.514;13.440;2023-08-20T09:47:19;25.30;41.40
13198;DHT22;6664;52.514;13.440;2023-08-20T09:50:10;25.30;40.20
13198;DHT22;6664;52.514;13.440;2023-08-20T09:52:58;25.30;40.60
13198;DHT22;6664;52.514;13.440;2023-08-20T09:55:50;25.30;39.70
13198;DHT22;6664;52.514;13.440;2023-08-20T09:58:40;25.30;39.70
13198;DHT22;6664;52.514;13.440;2023-08-20T10:01:27;25.40;40.30
13198;DHT22;6664;52.514;13.440;2023-08-20T10:04:15;25.30;39.30
13198;DHT22;6664;52.514;13.440;2023-08-20T10:07:03;25.30;39.60
13198;DHT22;6664;52.514;13.440;2023-08-20T10:09:49;25.30;40.20
13198;DHT22;6664;52.514;13.440;2023-08-20T10:12:37;25.30;37.50
13198;DHT22;6664;52.514;13.440;2023-08-20T10:15:27;25.50;36.80
13198;DHT22;6664;52.514;13.440;2023-08-20T10:18:21;25.60;36.10
13198;DHT22;6664;52.514;13.440;2023-08-20T10:21:07;25.70;36.00
13198;DHT22;6664;52.514;13.440;2023-08-20T10:23:54;25.60;33.70
13198;DHT22;6664;52.514;13.440;2023-08-20T10:26:39;25.70;33.20
13198;DHT22;6664;52.514;13.440;2023-08-20T10:29:35;25.70;32.20
13198;DHT22;6664;52.514;13.440;2023-08-20T10:38:25;25.80;30.20
13198;DHT22;6664;52.514;13.440;2023-08-20T10:41:10;25.70;29.10
13198;DHT22;6664;52.514;13.440;2023-08-20T10:44:01;25.80;28.20
13198;DHT22;6664;52.514;13.440;2023-08-20T10:46:50;25.80;27.30
13198;DHT22;6664;52.514;13.440;2023-08-20T10:49:38;25.90;27.00
13198;DHT22;6664;52.514;13.440;2023-08-20T10:52:24;26.10;26.70
13198;DHT22;6664;52.514;13.440;2023-08-20T10:55:09;26.10;25.70
13198;DHT22;6664;52.514;13.440;2023-08-20T10:57:56;26.10;25.60
13198;DHT22;6664;52.514;13.440;2023-08-20T11:00:42;26.30;25.50
13198;DHT22;6664;52.514;13.440;2023-08-20T11:03:28;26.50;24.10
13198;DHT22;6664;52.514;13.440;2023-08-20T11:06:14;27.00;23.00
13198;DHT22;6664;52.514;13.440;2023-08-20T11:09:01;26.80;21.50
13198;DHT22;6664;52.514;13.440;2023-08-20T11:11:49;26.90;21.60
13198;DHT22;6664;52.514;13.440;2023-08-20T11:14:35;27.10;20.40
13198;DHT22;6664;52.514;13.440;2023-08-20T11:17:20;27.00;20.60
13198;DHT22;6664;52.514;13.440;2023-08-20T11:20:09;27.00;20.80
13198;DHT22;6664;52.514;13.440;2023-08-20T11:22:59;26.90;20.50
13198;DHT22;6664;52.514;13.440;2023-08-20T11:25:45;27.00;20.20
13198;DHT22;6664;52.514;13.440;2023-08-20T11:28:30;26.90;20.40
13198;DHT22;6664;52.514;13.440;2023-08-20T11:31:19;27.00;19.80
13198;DHT22;6664;52.514;13.440;2023-08-20T11:34:05;27.00;19.80
13198;DHT22;6664;52.514;13.440;2023-08-20T11:36:51;27.10;20.00
13198;DHT22;6664;52.514;13.440;2023-08-20T11:39:38;27.20;19.50
13198;DHT22;6664;52.514;13.440;2023-08-20T11:42:24;27.20;18.20
13198;DHT22;6664;52.514;13.440;2023-08-20T11:45:10;27.30;18.70
13198;DHT22;6664;52.514;13.440;2023-08-20T11:47:56;27.50;18.00
13198;DHT22;6664;52.514;13.440;2023-08-20T11:50:43;27.60;17.60
13198;DHT22;6664;52.514;13.440;2023-08-20T11:53:29;27.60;17.20
13198;DHT22;6664;52.514;13.440;2023-08-20T11:56:15;27.60;16.30
13198;DHT22;6664;52.514;13.440;2023-08-20T11:59:01;27.80;15.50
13198;DHT22;6664;52.514;13.440;2023-08-20T12:01:56;27.90;15.60
13198;DHT22;6664;52.514;13.440;2023-08-20T12:04:50;28.00;15.60
13198;DHT22;6664;52.514;13.440;2023-08-20T12:07:36;28.20;15.00
13198;DHT22;6664;52.514;13.440;2023-08-20T12:10:23;28.20;14.80
13198;DHT22;6664;52.514;13.440;2023-08-20T12:13:08;28.20;14.60
13198;DHT22;6664;52.514;13.440;2023-08-20T12:15:54;28.00;14.50
13198;DHT22;6664;52.514;13.440;2023-08-20T12:18:42;28.00;14.50
13198;DHT22;6664;52.514;13.440;2023-08-20T12:21:27;28.10;14.80
13198;DHT22;6664;52.514;13.440;2023-08-20T12:24:12;28.20;14.20
13198;DHT22;6664;52.514;13.440;2023-08-20T12:26:58;28.40;14.00
13198;DHT22;6664;52.514;13.440;2023-08-20T12:29:43;28.50;13.10
13198;DHT22;6664;52.514;13.440;2023-08-20T12:32:29;28.80;12.40
13198;DHT22;6664;52.514;13.440;2023-08-20T12:35:14;29.50;11.30
13198;DHT22;6664;52.514;13.440;2023-08-20T12:38:01;30.10;8.40
13198;DHT22;6664;52.514;13.440;2023-08-20T12:40:47;31.00;7.20
13198;DHT22;6664;52.514;13.440;2023-08-20T12:43:32;35.20;1.00
13198;DHT22;6664;52.514;13.440;2023-08-20T12:46:18;38.90;1.00
13198;DHT22;6664;52.514;13.440;2023-08-20T12:49:03;41.70;1.00
13198;DHT22;6664;52.514;13.440;2023-08-20T12:51:52;43.40;1.00
13198;DHT22;6664;52.514;13.440;2023-08-20T12:54:38;44.50;1.00
13198;DHT22;6664;52.514;13.440;2023-08-20T12:57:23;44.20;1.00
13198;DHT22;6664;52.514;13.440;2023-08-20T13:00:09;44.00;1.00
13198;DHT22;6664;52.514;13.440;2023-08-20T13:02:59;45.00;1.00
13198;DHT22;6664;52.514;13.440;2023-08-20T13:05:45;45.30;1.00
13198;DHT22;6664;52.514;13.440;2023-08-20T13:08:31;46.80;1.00
13198;DHT22;6664;52.514;13.440;2023-08-20T13:11:21;50.70;1.00
13198;DHT22;6664;52.514;13.440;2023-08-20T13:14:11;51.70;1.00
13198;DHT22;6664;52.514;13.440;2023-08-20T13:16:56;54.50;1.00
13198;DHT22;6664;52.514;13.440;2023-08-20T13:19:42;51.50;1.00
13198;DHT22;6664;52.514;13.440;2023-08-20T13:22:28;51.70;1.00
13198;DHT22;6664;52.514;13.440;2023-08-20T13:25:14;52.70;1.00
13198;DHT22;6664;52.514;13.440;2023-08-20T13:28:02;51.20;1.00
13198;DHT22;6664;52.514;13.440;2023-08-20T13:30:49;53.10;1.00
13198;DHT22;6664;52.514;13.440;2023-08-20T13:33:34;52.90;1.00
13198;DHT22;6664;52.514;13.440;2023-08-20T13:36:19;50.70;1.00
13198;DHT22;6664;52.514;13.440;2023-08-20T13:39:05;50.00;1.00
13198;DHT22;6664;52.514;13.440;2023-08-20T13:41:52;52.50;1.00
13198;DHT22;6664;52.514;13.440;2023-08-20T13:44:38;50.90;1.00
13198;DHT22;6664;52.514;13.440;2023-08-20T13:47:26;44.20;1.00
13198;DHT22;6664;52.514;13.440;2023-08-20T13:50:11;41.70;1.00
13198;DHT22;6664;52.514;13.440;2023-08-20T13:52:59;40.00;1.00
13198;DHT22;6664;52.514;13.440;2023-08-20T13:55:46;40.50;1.00
13198;DHT22;6664;52.514;13.440;2023-08-20T13:58:31;38.00;1.00
13198;DHT22;6664;52.514;13.440;2023-08-20T14:01:17;37.20;1.00
13198;DHT22;6664;52.514;13.440;2023-08-20T14:04:03;36.00;1.00
13198;DHT22;6664;52.514;13.440;2023-08-20T14:06:49;33.70;1.00
13198;DHT22;6664;52.514;13.440;2023-08-20T14:09:35;33.00;1.00
13198;DHT22;6664;52.514;13.440;2023-08-20T14:12:22;32.40;1.00
13198;DHT22;6664;52.514;13.440;2023-08-20T14:15:08;35.90;1.00
13198;DHT22;6664;52.514;13.440;2023-08-20T14:17:55;37.80;1.00
13198;DHT22;6664;52.514;13.440;2023-08-20T14:20:40;37.40;1.00
13198;DHT22;6664;52.514;13.440;2023-08-20T14:23:26;37.80;1.00
13198;DHT22;6664;52.514;13.440;2023-08-20T14:26:17;35.70;1.00
13198;DHT22;6664;52.514;13.440;2023-08-20T14:29:02;33.90;1.00
13198;DHT22;6664;52.514;13.440;2023-08-20T14:31:48;32.40;1.00
13198;DHT22;6664;52.514;13.440;2023-08-20T14:34:36;32.00;1.00
13198;DHT22;6664;52.514;13.440;2023-08-20T14:37:22;31.60;1.00
13198;DHT22;6664;52.514;13.440;2023-08-20T14:40:08;31.60;1.00
13198;DHT22;6664;52.514;13.440;2023-08-20T14:42:55;31.10;1.00
13198;DHT22;6664;52.514;13.440;2023-08-20T14:45:41;31.30;1.00
13198;DHT22;6664;52.514;13.440;2023-08-20T14:48:29;30.20;1.00
13198;DHT22;6664;52.514;13.440;2023-08-20T14:51:17;30.30;1.00
13198;DHT22;6664;52.514;13.440;2023-08-20T14:54:05;30.50;1.00
13198;DHT22;6664;52.514;13.440;2023-08-20T14:56:50;30.50;1.00
13198;DHT22;6664;52.514;13.440;2023-08-20T14:59:36;30.70;1.00
13198;DHT22;6664;52.514;13.440;2023-08-20T15:02:22;30.70;1.00
13198;DHT22;6664;52.514;13.440;2023-08-20T15:05:10;30.70;1.00
13198;DHT22;6664;52.514;13.440;2023-08-20T15:07:56;30.40;1.00
13198;DHT22;6664;52.514;13.440;2023-08-20T15:10:42;29.90;1.00
13198;DHT22;6664;52.514;13.440;2023-08-20T15:13:30;30.00;1.00
13198;DHT22;6664;52.514;13.440;2023-08-20T15:16:16;30.00;1.00
13198;DHT22;6664;52.514;13.440;2023-08-20T15:19:02;30.20;1.00
13198;DHT22;6664;52.514;13.440;2023-08-20T15:21:48;30.00;1.00
13198;DHT22;6664;52.514;13.440;2023-08-20T15:24:33;30.50;1.00
13198;DHT22;6664;52.514;13.440;2023-08-20T15:27:25;30.50;1.00
13198;DHT22;6664;52.514;13.440;2023-08-20T15:30:13;31.10;1.00
13198;DHT22;6664;52.514;13.440;2023-08-20T15:33:00;31.10;1.00
13198;DHT22;6664;52.514;13.440;2023-08-20T15:35:45;31.20;1.00
13198;DHT22;6664;52.514;13.440;2023-08-20T15:38:30;31.20;1.00
13198;DHT22;6664;52.514;13.440;2023-08-20T15:41:16;31.30;1.00
13198;DHT22;6664;52.514;13.440;2023-08-20T15:44:02;30.80;1.00
13198;DHT22;6664;52.514;13.440;2023-08-20T15:46:47;30.20;1.00
13198;DHT22;6664;52.514;13.440;2023-08-20T15:49:34;30.20;1.00
13198;DHT22;6664;52.514;13.440;2023-08-20T15:52:21;29.80;1.00
13198;DHT22;6664;52.514;13.440;2023-08-20T15:55:09;29.90;1.00
13198;DHT22;6664;52.514;13.440;2023-08-20T15:57:56;29.70;1.00
13198;DHT22;6664;52.514;13.440;2023-08-20T16:00:43;30.10;1.00
13198;DHT22;6664;52.514;13.440;2023-08-20T16:03:28;30.20;1.00
13198;DHT22;6664;52.514;13.440;2023-08-20T16:06:15;29.80;1.00
13198;DHT22;6664;52.514;13.440;2023-08-20T16:09:01;29.80;1.00
13198;DHT22;6664;52.514;13.440;2023-08-20T16:11:47;30.00;1.00
13198;DHT22;6664;52.514;13.440;2023-08-20T16:14:32;29.60;1.00
13198;DHT22;6664;52.514;13.440;2023-08-20T16:17:20;29.10;1.00
13198;DHT22;6664;52.514;13.440;2023-08-20T16:20:06;29.20;1.00
13198;DHT22;6664;52.514;13.440;2023-08-20T16:22:55;28.90;1.00
13198;DHT22;6664;52.514;13.440;2023-08-20T16:25:46;29.40;1.00
13198;DHT22;6664;52.514;13.440;2023-08-20T16:28:32;28.80;1.00
13198;DHT22;6664;52.514;13.440;2023-08-20T16:31:18;28.80;1.00
13198;DHT22;6664;52.514;13.440;2023-08-20T16:34:03;29.10;1.00
13198;DHT22;6664;52.514;13.440;2023-08-20T16:36:50;28.70;1.00
13198;DHT22;6664;52.514;13.440;2023-08-20T16:39:36;28.50;1.00
13198;DHT22;6664;52.514;13.440;2023-08-20T16:42:21;28.30;1.00
13198;DHT22;6664;52.514;13.440;2023-08-20T16:45:07;28.20;1.00
13198;DHT22;6664;52.514;13.440;2023-08-20T16:47:54;28.00;1.00
13198;DHT22;6664;52.514;13.440;2023-08-20T16:50:42;27.90;1.00
13198;DHT22;6664;52.514;13.440;2023-08-20T16:53:28;27.80;1.00
13198;DHT22;6664;52.514;13.440;2023-08-20T16:56:14;27.70;1.00
13198;DHT22;6664;52.514;13.440;2023-08-20T16:59:00;27.70;1.00
13198;DHT22;6664;52.514;13.440;2023-08-20T17:01:46;27.70;1.00
13198;DHT22;6664;52.514;13.440;2023-08-20T17:04:34;27.60;1.00
13198;DHT22;6664;52.514;13.440;2023-08-20T17:07:22;27.50;1.00
13198;DHT22;6664;52.514;13.440;2023-08-20T17:10:08;27.50;1.00
13198;DHT22;6664;52.514;13.440;2023-08-20T17:12:54;27.40;1.00
13198;DHT22;6664;52.514;13.440;2023-08-20T17:15:41;27.30;1.00
13198;DHT22;6664;52.514;13.440;2023-08-20T17:18:28;27.10;1.00
13198;DHT22;6664;52.514;13.440;2023-08-20T17:21:15;27.70;1.00
13198;DHT22;6664;52.514;13.440;2023-08-20T17:24:02;27.20;1.00
13198;DHT22;6664;52.514;13.440;2023-08-20T17:26:48;27.00;1.00
13198;DHT22;6664;52.514;13.440;2023-08-20T17:29:34;26.90;1.00
13198;DHT22;6664;52.514;13.440;2023-08-20T17:32:20;26.80;1.00
13198;DHT22;6664;52.514;13.440;2023-08-20T17:35:07;26.60;1.00
13198;DHT22;6664;52.514;13.440;2023-08-20T17:37:54;26.50;1.00
13198;DHT22;6664;52.514;13.440;2023-08-20T17:40:39;26.30;1.00
13198;DHT22;6664;52.514;13.440;2023-08-20T17:43:24;26.20;1.00
13198;DHT22;6664;52.514;13.440;2023-08-20T17:46:10;26.10;1.00
13198;DHT22;6664;52.514;13.440;2023-08-20T17:48:56;26.10;1.00
13198;DHT22;6664;52.514;13.440;2023-08-20T17:51:42;26.00;1.00
13198;DHT22;6664;52.514;13.440;2023-08-20T17:54:27;25.90;1.00
13198;DHT22;6664;52.514;13.440;2023-08-20T17:57:13;25.70;1.10